TimeMDT,TemperatureF,Dew PointF,Humidity,Sea Level PressureIn,VisibilityMPH,Wind Direction,Wind SpeedMPH,Gust SpeedMPH,PrecipitationIn,Events,Conditions,WindDirDegrees,DateUTC
12:48 AM,37.0,34.0,89,30.21,-9999.0,Calm,Calm,-,N/A,,Unknown,0,2012-11-03 06:48:00
1:48 AM,37.9,35.1,89,30.21,-9999.0,Calm,Calm,-,N/A,,Unknown,0,2012-11-03 07:48:00
2:48 AM,37.0,35.1,93,30.20,-9999.0,East,4.6,-,N/A,,Unknown,80,2012-11-03 08:48:00
3:48 AM,37.0,34.0,89,30.19,-9999.0,ENE,5.8,-,N/A,,Unknown,70,2012-11-03 09:48:00
4:48 AM,36.0,33.1,89,30.19,-9999.0,East,3.5,-,N/A,,Unknown,80,2012-11-03 10:48:00
5:48 AM,35.1,33.1,92,30.20,-9999.0,East,3.5,-,N/A,,Unknown,80,2012-11-03 11:48:00
6:48 AM,35.1,32.0,89,30.21,-9999.0,East,6.9,-,N/A,,Unknown,80,2012-11-03 12:48:00
7:48 AM,34.0,30.9,89,30.22,-9999.0,East,5.8,-,N/A,,Unknown,80,2012-11-03 13:48:00
8:48 AM,35.1,32.0,89,30.22,-9999.0,East,6.9,-,N/A,,Unknown,90,2012-11-03 14:48:00
9:48 AM,35.1,34.0,96,30.22,-9999.0,East,6.9,-,N/A,,Unknown,100,2012-11-03 15:48:00
10:48 AM,36.0,35.1,97,30.21,-9999.0,ESE,6.9,-,N/A,,Unknown,110,2012-11-03 16:48:00
11:48 AM,37.0,36.0,96,30.20,-9999.0,East,8.1,-,N/A,,Unknown,100,2012-11-03 17:48:00
12:48 PM,39.0,36.0,89,30.19,-9999.0,ESE,6.9,-,N/A,,Unknown,110,2012-11-03 18:48:00
1:48 PM,41.0,37.0,86,30.16,-9999.0,ESE,6.9,-,N/A,,Unknown,110,2012-11-03 19:48:00
2:48 PM,43.0,36.0,76,30.14,-9999.0,ESE,10.4,-,N/A,,Unknown,120,2012-11-03 20:48:00
3:48 PM,44.1,37.0,76,30.13,-9999.0,ESE,8.1,-,N/A,,Unknown,110,2012-11-03 21:48:00
4:48 PM,42.1,36.0,79,30.14,-9999.0,ESE,9.2,-,N/A,,Unknown,110,2012-11-03 22:48:00
5:48 PM,39.9,36.0,86,30.13,-9999.0,East,6.9,-,N/A,,Unknown,100,2012-11-03 23:48:00
6:48 PM,37.0,35.1,93,30.14,-9999.0,East,3.5,-,N/A,,Unknown,100,2012-11-04 00:48:00
7:48 PM,37.9,35.1,89,30.12,-9999.0,East,8.1,-,N/A,,Unknown,90,2012-11-04 01:48:00
8:48 PM,36.0,34.0,93,30.10,-9999.0,East,5.8,-,N/A,,Unknown,80,2012-11-04 02:48:00
9:48 PM,37.0,34.0,89,30.10,-9999.0,East,3.5,-,N/A,,Unknown,90,2012-11-04 03:48:00
10:48 PM,37.9,35.1,89,30.09,-9999.0,East,4.6,-,N/A,,Unknown,80,2012-11-04 04:48:00
11:48 PM,39.0,36.0,89,30.07,-9999.0,ENE,4.6,-,N/A,,Unknown,60,2012-11-04 05:48:00